Pagrindinis puslapis
METAR-TAF:

METAR-TAF

Oro uostai :

Cotulla, Teksasas, Jungtinės Amerikos Valstijos

platuma: 28-27-30N, ilguma: 099-13-13W, Aukštis: 145 m

Dabartinis oras

Ataskaita buvo paskelbta 48 minutes, ne 05:53 UTC
Vėjas 4 kt iš Pietų/Pietryčių
Temperatūra 23°C
Drėgmė 89%
Slėgis 1013 hPa
Matomumas: 16.1 km
Giedras dangus

METAR: KCOT 270553Z AUTO 15004KT 10SM CLR 23/21 A2992 RMK AO2 SLP126 T02280206 10317 20228 403170189 50007

Laikas: 01:41 (06:41 UTC)

Prognozė

Ataskaita buvo paskelbta 1 valandą ir 21 minutes, ne 05:20 UTC
Prognozė galioja nuo 27 metu 06 UTC su 28 metu 06 UTC
Vėjas 6 kt iš Pietų/Pietryčių
Matomumas: 10 km
Giedras dangus

TAF: KCOT 270520Z 2706/2806 15006KT P6SM SKC

Orai ataskaitas ir orų prognozės (METAR, TAF).

turimą stotys yra geltonos ir raudonos taškus žemėlapyje.

Perkelti pele per norėdami pamatyti stoties vardą.

Tada spustelėkite, norėdami matyti oro stebėjimo ir prognozės.

Norėdami pakeisti žemėlapį: spustelėkite ant žalios mygtukų su juodo kryžiaus žemyn,; žalią mygtuką su brūkšneliu, jei norite nutolinti; arba žalių rodyklių gretimoms žemėlapius.


METAR-TAF: